Marfret Guyane — FNMV — position and weather

sailwx.info

Track history (hours):
 
Tides and Currents Weather Stations Pressure Air Temp Water Temp Dewpoint Dewpoint Depression Visibility Wind Speed Wind Dir Waves Ship Positions

Marfret Guyane

Last reported at 2016-Sep-20 14:29 UTC. Time now 2016-Sep-25 19:11 UTC.
Position S 00°13' W 047°46'.

Length 170 m; draft 6.5 m.

Type: Ship (hazmat cat A). MMSI: 226324000.

Date/timePositionNaut miles runAvg speedWind from/ knotsBaromVisibWave heightAir tempDewpointWater temp
2016-Sep-20 14:29S 00°13' W 047°46'1414.7
2016-Sep-20 13:33S 00°18' W 047°59'4013.2
2016-Sep-20 10:31S 00°46' W 048°27'2814.1
2016-Sep-20 08:32S 01°13' W 048°35'1818.2
2016-Sep-20 07:33S 01°28' W 048°44'4 0.7
2016-Sep-20 02:28S 01°32' W 048°45'0 0.0
2016-Sep-19 23:31S 01°32' W 048°45'1 0.1
2016-Sep-19 14:34S 01°32' W 048°46'1414.1
2016-Sep-19 13:34S 01°19' W 048°39'1615.9
2016-Sep-19 12:34S 01°07' W 048°30'4 3.3
2016-Sep-19 11:28S 01°04' W 048°28'12 6.4
2016-Sep-19 09:33S 00°51' W 048°29'3015.2
2016-Sep-19 07:34S 00°26' W 048°12'1615.6
2016-Sep-19 06:33S 00°18' W 047°59'  
2016-Sep-12 03:33N 10°39' W 061°32'1 0.3
2016-Sep-12 01:32N 10°39' W 061°32'0 0.0
2016-Sep-11 23:32N 10°39' W 061°32'0 0.0
2016-Sep-11 22:32N 10°39' W 061°32'0 0.0
2016-Sep-11 21:32N 10°39' W 061°32'0 0.0
2016-Sep-11 20:32N 10°39' W 061°32'0 0.0
2016-Sep-11 19:32N 10°39' W 061°32'0 0.0
2016-Sep-11 18:32N 10°39' W 061°32'0 0.0
2016-Sep-11 17:32N 10°39' W 061°32'0 0.0
2016-Sep-11 16:32N 10°39' W 061°32'0 0.0
2016-Sep-11 15:32N 10°39' W 061°32'0 0.0
2016-Sep-11 14:32N 10°39' W 061°32'0 0.0
2016-Sep-11 13:32N 10°39' W 061°32'0 0.0
2016-Sep-11 12:32N 10°39' W 061°32'0 0.0
2016-Sep-11 11:32N 10°39' W 061°32'0 0.0
2016-Sep-11 10:32N 10°39' W 061°32'0 0.0
2016-Sep-11 08:34N 10°39' W 061°32'5 5.2
2016-Sep-11 07:33N 10°37' W 061°36'20 4.9
2016-Sep-11 03:33N 10°51' W 061°51'1211.2
2016-Sep-11 02:29N 11°03' W 061°53'  
Track history (hours):
 
Tides and Currents Weather Stations Pressure Air Temp Water Temp Dewpoint Dewpoint Depression Visibility Wind Speed Wind Dir Waves Ship Positions

Marfret Guyane

Last reported at 2016-Sep-20 14:29 UTC. Time now 2016-Sep-25 19:11 UTC.
Position S 00°13' W 047°46'.

Length 170 m; draft 6.5 m.

Type: Ship (hazmat cat A). MMSI: 226324000.

Date/timePositionNaut miles runAvg speedWind from/ knotsBaromVisibWave heightAir tempDewpointWater temp
2016-Sep-20 14:29S 00°13' W 047°46'1414.7
2016-Sep-20 13:33S 00°18' W 047°59'4013.2
2016-Sep-20 10:31S 00°46' W 048°27'2814.1
2016-Sep-20 08:32S 01°13' W 048°35'1818.2
2016-Sep-20 07:33S 01°28' W 048°44'4 0.7
2016-Sep-20 02:28S 01°32' W 048°45'0 0.0
2016-Sep-19 23:31S 01°32' W 048°45'1 0.1
2016-Sep-19 14:34S 01°32' W 048°46'1414.1
2016-Sep-19 13:34S 01°19' W 048°39'1615.9
2016-Sep-19 12:34S 01°07' W 048°30'4 3.3
2016-Sep-19 11:28S 01°04' W 048°28'12 6.4
2016-Sep-19 09:33S 00°51' W 048°29'3015.2
2016-Sep-19 07:34S 00°26' W 048°12'1615.6
2016-Sep-19 06:33S 00°18' W 047°59'  
2016-Sep-12 03:33N 10°39' W 061°32'1 0.3
2016-Sep-12 01:32N 10°39' W 061°32'0 0.0
2016-Sep-11 23:32N 10°39' W 061°32'0 0.0
2016-Sep-11 22:32N 10°39' W 061°32'0 0.0
2016-Sep-11 21:32N 10°39' W 061°32'0 0.0
2016-Sep-11 20:32N 10°39' W 061°32'0 0.0
2016-Sep-11 19:32N 10°39' W 061°32'0 0.0
2016-Sep-11 18:32N 10°39' W 061°32'0 0.0
2016-Sep-11 17:32N 10°39' W 061°32'0 0.0
2016-Sep-11 16:32N 10°39' W 061°32'0 0.0
2016-Sep-11 15:32N 10°39' W 061°32'0 0.0
2016-Sep-11 14:32N 10°39' W 061°32'0 0.0
2016-Sep-11 13:32N 10°39' W 061°32'0 0.0
2016-Sep-11 12:32N 10°39' W 061°32'0 0.0
2016-Sep-11 11:32N 10°39' W 061°32'0 0.0
2016-Sep-11 10:32N 10°39' W 061°32'0 0.0
2016-Sep-11 08:34N 10°39' W 061°32'5 5.2
2016-Sep-11 07:33N 10°37' W 061°36'20 4.9
2016-Sep-11 03:33N 10°51' W 061°51'1211.2
2016-Sep-11 02:29N 11°03' W 061°53'  

Dump ship's entire track history